Time;durP1;ratioP1;P1;durP2;ratioP2;P2;SDS_P1;SDS_P2;PMS_P1;PMS_P2;Temp;Humidity;BMP_temperature;BMP_pressure;BME280_temperature;BME280_humidity;BME280_pressure;Samples;Min_cycle;Max_cycle;Signal;HPM_P1;HPM_P2
2022/04/05 00:02:16;;;;;;;15.95;8.88;;;;;;;6.36;59.48;95009.94;6226167;22;20009;-83
2022/04/05 00:04:42;;;;;;;20.60;9.55;;;;;;;5.99;60.40;94946.69;6225772;22;20096;-82
2022/04/05 00:07:07;;;;;;;16.13;8.98;;;;;;;6.80;59.91;95055.34;6224810;23;20039;-82
2022/04/05 00:09:33;;;;;;;20.42;10.07;;;;;;;6.85;59.23;95057.22;6226653;22;20008;-83
2022/04/05 00:11:58;;;;;;;25.00;10.48;;;;;;;5.24;59.37;94815.22;6224118;23;20012;-83
2022/04/05 00:14:24;;;;;;;28.25;10.38;;;;;;;6.73;59.67;95041.56;6223492;23;20012;-83
2022/04/05 00:16:50;;;;;;;25.15;9.80;;;;;;;6.53;59.28;95007.97;6223924;23;20041;-82
2022/04/05 00:19:15;;;;;;;17.40;9.18;;;;;;;5.91;59.20;94912.91;6227139;22;20007;-83
2022/04/05 00:21:41;;;;;;;18.33;10.18;;;;;;;6.60;59.46;95013.03;6224358;23;20040;-83
2022/04/05 00:24:07;;;;;;;17.30;9.43;;;;;;;6.76;59.70;95054.25;6224262;23;20016;-83
2022/04/05 00:26:34;;;;;;;23.70;9.23;;;;;;;6.01;59.93;94936.72;6224334;22;20067;-82
2022/04/05 00:28:59;;;;;;;20.52;9.48;;;;;;;6.03;59.91;94931.97;6224077;23;20341;-82
2022/04/05 00:31:25;;;;;;;21.63;10.05;;;;;;;6.74;59.95;95045.00;6227881;23;20081;-83
2022/04/05 00:33:51;;;;;;;23.58;9.90;;;;;;;5.94;60.18;94938.75;6228724;23;20105;-83
2022/04/05 00:36:16;;;;;;;16.38;9.23;;;;;;;6.38;60.21;95007.84;6228355;22;20008;-83
2022/04/05 00:38:42;;;;;;;22.02;9.38;;;;;;;6.51;61.09;95039.03;6226484;23;20016;-83
2022/04/05 00:41:07;;;;;;;36.85;10.20;;;;;;;5.92;60.32;94925.03;6226115;23;20007;-82
2022/04/05 00:43:33;;;;;;;24.38;9.07;;;;;;;5.72;61.02;94930.09;6226465;23;20506;-83
2022/04/05 00:45:58;;;;;;;23.58;8.32;;;;;;;6.00;60.56;94942.22;6226179;22;20709;-83
2022/04/05 00:48:30;;;;;;;17.08;9.40;;;;;;;5.57;60.90;94882.59;6226645;23;20030;-82
2022/04/05 00:50:56;;;;;;;19.70;9.38;;;;;;;5.82;61.79;94954.66;6228827;22;20012;-83
2022/04/05 00:53:24;;;;;;;17.95;9.40;;;;;;;6.19;62.38;95010.03;6226468;23;20081;-83
2022/04/05 00:55:53;;;;;;;16.17;8.65;;;;;;;6.07;61.83;94971.75;6225300;23;20016;-83
2022/04/05 00:58:20;;;;;;;24.38;9.18;;;;;;;5.86;62.02;94959.44;6228146;22;20410;-83
2022/04/05 01:00:49;;;;;;;19.73;8.60;;;;;;;5.29;62.09;94865.22;6227770;23;20019;-83
2022/04/05 01:03:16;;;;;;;21.60;8.93;;;;;;;5.89;62.88;94986.06;6228665;22;20019;-82
2022/04/05 01:05:43;;;;;;;23.38;8.90;;;;;;;5.44;62.75;94899.56;6225810;23;20069;-82
2022/04/05 01:08:12;;;;;;;20.60;7.82;;;;;;;5.49;62.09;94915.41;6226803;23;20012;-82
2022/04/05 01:10:39;;;;;;;18.50;8.57;;;;;;;5.75;62.75;94948.00;6228395;23;20476;-82
2022/04/05 01:13:04;;;;;;;24.40;7.90;;;;;;;5.76;63.35;94955.66;6229402;22;20095;-83
2022/04/05 01:15:30;;;;;;;16.98;8.45;;;;;;;6.04;63.34;95004.63;6229842;23;20173;-82
2022/04/05 01:17:55;;;;;;;23.85;8.88;;;;;;;5.67;63.59;94972.13;6226524;23;20427;-82
2022/04/05 01:20:21;;;;;;;18.98;8.48;;;;;;;5.50;63.50;94937.22;6227580;22;20477;-81
2022/04/05 01:22:48;;;;;;;17.08;8.40;;;;;;;6.09;63.20;95025.78;6228130;22;20080;-82
2022/04/05 01:25:18;;;;;;;16.90;8.25;;;;;;;5.88;62.74;94979.22;6226498;23;20453;-83
2022/04/05 01:27:43;;;;;;;17.88;8.60;;;;;;;2.82;64.02;94572.47;6226096;23;20043;-83
2022/04/05 01:30:10;;;;;;;18.02;8.55;;;;;;;5.70;64.19;95017.16;6228001;22;20477;-83
2022/04/05 01:32:37;;;;;;;14.20;8.10;;;;;;;5.51;64.07;94970.38;6230769;22;20038;-82
2022/04/05 01:35:03;;;;;;;19.02;8.57;;;;;;;5.09;64.30;94899.19;6229667;23;20012;-82
2022/04/05 01:37:30;;;;;;;18.70;8.93;;;;;;;5.98;64.08;95025.91;6231129;22;20008;-83
2022/04/05 01:39:55;;;;;;;13.05;7.97;;;;;;;5.92;63.43;95026.91;6231030;22;20019;-82
2022/04/05 01:42:21;;;;;;;12.95;7.55;;;;;;;5.62;63.91;94974.72;6230680;22;20229;-82
2022/04/05 01:44:46;;;;;;;15.90;7.90;;;;;;;5.21;64.50;94942.69;6230429;23;20094;-82
2022/04/05 01:47:16;;;;;;;14.85;7.65;;;;;;;4.99;64.79;94926.13;6231913;22;20027;-84
2022/04/05 01:49:44;;;;;;;18.48;8.75;;;;;;;5.51;64.88;95005.38;6231573;23;20013;-83
2022/04/05 01:52:10;;;;;;;14.02;8.25;;;;;;;4.87;64.86;94901.81;6232270;22;20541;-83
2022/04/05 01:54:37;;;;;;;16.83;8.65;;;;;;;4.73;65.60;94911.09;6230250;23;20364;-83
2022/04/05 01:57:03;;;;;;;14.88;8.45;;;;;;;4.32;65.68;94839.66;6229524;23;20034;-83
2022/04/05 01:59:32;;;;;;;17.70;8.85;;;;;;;5.56;65.69;95010.69;6231455;22;20494;-83
2022/04/05 02:01:58;;;;;;;14.10;7.63;;;;;;;4.86;65.31;94893.13;6231781;23;20016;-83
2022/04/05 02:04:24;;;;;;;17.50;8.35;;;;;;;5.16;65.15;94942.66;6230652;23;20082;-83
2022/04/05 02:06:50;;;;;;;17.20;8.65;;;;;;;4.82;65.67;94901.72;6230234;22;20018;-83
2022/04/05 02:09:17;;;;;;;14.45;8.40;;;;;;;5.07;65.79;94945.94;6230112;23;20190;-84
2022/04/05 02:11:47;;;;;;;19.85;8.18;;;;;;;4.35;65.73;94833.91;6228709;23;20811;-83
2022/04/05 02:14:15;;;;;;;15.73;8.48;;;;;;;5.56;65.51;95005.44;6231373;22;20101;-83
2022/04/05 02:16:40;;;;;;;12.70;7.95;;;;;;;4.89;66.13;94936.50;6229513;23;20413;-84
2022/04/05 02:19:06;;;;;;;15.20;8.35;;;;;;;5.05;66.15;94943.53;6230562;23;20441;-84
2022/04/05 02:21:32;;;;;;;14.65;8.30;;;;;;;4.97;65.63;94933.47;6232719;22;20414;-83
2022/04/05 02:23:58;;;;;;;17.77;8.90;;;;;;;4.88;65.67;94892.91;6230008;23;20083;-85
2022/04/05 02:26:24;;;;;;;16.27;7.95;;;;;;;4.69;66.30;94895.03;6230740;23;20008;-85
2022/04/05 02:28:50;;;;;;;21.42;7.32;;;;;;;4.55;66.84;94891.94;6230884;23;20012;-84
2022/04/05 02:31:15;;;;;;;15.02;8.07;;;;;;;4.48;66.17;94857.19;6230326;23;20454;-84
2022/04/05 02:33:41;;;;;;;16.13;8.07;;;;;;;5.16;66.04;94958.41;6231090;23;20035;-84
2022/04/05 02:36:07;;;;;;;17.00;8.82;;;;;;;5.36;65.82;94979.69;6232192;22;20487;-84
2022/04/05 02:38:33;;;;;;;16.90;8.82;;;;;;;4.98;66.98;94974.47;6229690;23;20379;-85
2022/04/05 02:40:59;;;;;;;18.88;8.73;;;;;;;4.49;67.19;94898.19;6232487;22;20015;-83
2022/04/05 02:43:25;;;;;;;18.40;8.43;;;;;;;5.02;67.28;94967.72;6232684;22;20004;-84
2022/04/05 02:45:51;;;;;;;17.40;9.13;;;;;;;3.88;66.69;94781.06;6232460;22;20035;-83
2022/04/05 02:48:16;;;;;;;18.42;9.82;;;;;;;3.89;66.99;94777.41;6230817;23;20051;-83
2022/04/05 02:50:42;;;;;;;18.83;9.30;;;;;;;5.01;66.39;94958.22;6233160;22;20008;-84
2022/04/05 02:53:07;;;;;;;17.73;9.75;;;;;;;4.94;66.22;94929.50;6229251;23;20012;-83
2022/04/05 02:55:33;;;;;;;22.95;9.82;;;;;;;5.19;66.54;94963.16;6230725;23;20074;-83
2022/04/05 02:57:59;;;;;;;18.23;9.75;;;;;;;5.35;66.05;94964.16;6230492;23;20038;-83
2022/04/05 03:00:24;;;;;;;28.15;10.73;;;;;;;4.30;66.17;94809.41;6230747;23;20067;-83
2022/04/05 03:02:50;;;;;;;24.23;10.40;;;;;;;4.77;66.00;94878.03;6229356;23;20000;-83
2022/04/05 03:05:18;;;;;;;26.17;10.98;;;;;;;4.69;66.10;94853.00;6229694;23;20439;-83
2022/04/05 03:07:43;;;;;;;31.52;11.70;;;;;;;4.76;66.16;94865.94;6234504;22;20351;-84
2022/04/05 03:10:11;;;;;;;35.83;13.02;;;;;;;4.84;66.26;94868.13;6232486;22;20023;-83
2022/04/05 03:12:37;;;;;;;32.17;13.20;;;;;;;4.22;66.87;94837.69;6231095;22;20012;-84
2022/04/05 03:15:09;;;;;;;33.20;12.68;;;;;;;5.13;67.19;94958.91;6231752;23;20007;-83
2022/04/05 03:17:35;;;;;;;;;;;;;;;5.23;66.77;94960.84;6205142;23;20012;-83
2022/04/05 03:20:04;;;;;;;24.88;13.10;;;;;;;4.38;66.68;94857.06;6229991;23;19941;-83
2022/04/05 03:22:30;;;;;;;29.10;14.20;;;;;;;4.27;66.27;94836.97;6232944;22;20023;-83
2022/04/05 03:24:56;;;;;;;36.13;13.00;;;;;;;5.01;65.76;94943.25;6231959;23;20363;-84
2022/04/05 03:27:21;;;;;;;23.08;11.93;;;;;;;4.69;65.75;94871.38;6233764;22;20016;-83
2022/04/05 03:29:47;;;;;;;30.45;12.65;;;;;;;4.53;65.50;94859.88;6235944;23;20111;-83
2022/04/05 03:32:12;;;;;;;27.20;11.85;;;;;;;4.37;65.54;94847.59;6235328;22;20035;-82
2022/04/05 03:34:39;;;;;;;27.52;12.20;;;;;;;5.10;65.75;94951.50;6236552;23;20011;-83
2022/04/05 03:37:05;;;;;;;27.38;12.38;;;;;;;5.28;65.44;94953.81;6233471;23;20062;-83
2022/04/05 03:39:31;;;;;;;26.65;11.40;;;;;;;4.87;65.18;94939.41;6234015;23;20016;-83
2022/04/05 03:41:57;;;;;;;22.80;11.80;;;;;;;5.02;65.60;94960.63;6233611;23;20084;-82
2022/04/05 03:44:23;;;;;;;25.92;11.63;;;;;;;3.46;65.18;94696.78;6236776;22;20020;-84
2022/04/05 03:46:48;;;;;;;36.67;13.50;;;;;;;4.43;64.71;94856.31;6236421;22;20405;-84
2022/04/05 03:49:14;;;;;;;29.83;13.50;;;;;;;4.28;65.18;94822.78;6234930;23;20019;-83
2022/04/05 03:51:39;;;;;;;31.85;13.18;;;;;;;4.65;64.78;94892.06;6233584;23;20422;-83
2022/04/05 03:54:05;;;;;;;30.27;12.73;;;;;;;3.88;64.60;94779.22;6237098;22;20443;-83
2022/04/05 03:56:30;;;;;;;28.63;13.25;;;;;;;4.40;64.77;94847.13;6235998;23;20007;-83
2022/04/05 03:58:56;;;;;;;31.35;13.10;;;;;;;5.08;64.78;94966.72;6234553;23;20091;-83
2022/04/05 04:01:21;;;;;;;36.45;15.10;;;;;;;4.97;64.59;94946.59;6236904;22;20014;-83
2022/04/05 04:03:47;;;;;;;36.85;15.50;;;;;;;4.43;64.56;94843.97;6234858;22;20190;-83
2022/04/05 04:06:12;;;;;;;46.10;15.77;;;;;;;4.31;65.28;94843.31;6236254;23;20004;-83
2022/04/05 04:08:38;;;;;;;43.42;15.18;;;;;;;4.69;65.10;94902.09;6239381;23;20018;-83
2022/04/05 04:11:03;;;;;;;41.78;14.98;;;;;;;4.30;64.72;94859.28;6236274;22;20016;-83
2022/04/05 04:13:29;;;;;;;38.40;14.85;;;;;;;4.35;65.66;94852.28;6237778;23;20647;-84
2022/04/05 04:15:56;;;;;;;47.60;18.08;;;;;;;5.03;65.65;94958.78;6237029;23;20018;-83
2022/04/05 04:18:22;;;;;;;42.03;16.20;;;;;;;4.49;65.48;94884.25;6238227;23;20077;-83
2022/04/05 04:20:48;;;;;;;39.85;15.13;;;;;;;4.50;65.80;94886.63;6237502;23;20091;-83
2022/04/05 04:23:14;;;;;;;43.60;15.13;;;;;;;4.97;65.66;94968.41;6237651;23;20012;-83
2022/04/05 04:25:40;;;;;;;48.78;16.23;;;;;;;4.78;65.83;94948.72;6238607;22;20004;-83
2022/04/05 04:28:06;;;;;;;43.13;14.18;;;;;;;4.84;66.51;94973.22;6236889;23;20015;-83
2022/04/05 04:30:36;;;;;;;46.17;14.93;;;;;;;5.00;65.37;94970.56;6238777;22;20042;-83
2022/04/05 04:33:02;;;;;;;49.08;13.70;;;;;;;4.97;65.32;94972.88;6237112;23;20066;-83
2022/04/05 04:35:28;;;;;;;37.45;13.80;;;;;;;4.77;65.36;94973.41;6239515;23;20393;-83
2022/04/05 04:37:54;;;;;;;37.78;13.65;;;;;;;4.24;65.91;94922.22;6241270;22;20008;-83
2022/04/05 04:40:19;;;;;;;33.47;13.45;;;;;;;3.65;65.26;94831.88;6237768;23;20439;-83
2022/04/05 04:42:45;;;;;;;39.58;15.23;;;;;;;4.56;65.34;94969.72;6244029;22;20028;-83
2022/04/05 04:45:12;;;;;;;31.83;13.27;;;;;;;3.80;65.54;94871.44;6241240;23;20076;-83
2022/04/05 04:47:38;;;;;;;29.05;13.82;;;;;;;4.49;65.20;94957.78;6243734;22;20487;-83
2022/04/05 04:50:06;;;;;;;30.67;12.77;;;;;;;4.06;65.39;94896.22;6239101;22;20099;-84
2022/04/05 04:52:32;;;;;;;26.95;14.10;;;;;;;3.93;65.22;94864.28;6233970;23;20028;-83
2022/04/05 04:54:58;;;;;;;26.88;13.60;;;;;;;3.68;65.28;94836.63;6226175;23;20008;-85
2022/04/05 04:57:25;;;;;;;36.55;14.05;;;;;;;3.56;65.03;94782.66;6234501;22;20122;-83
2022/04/05 04:59:52;;;;;;;32.75;13.10;;;;;;;4.59;64.38;94963.97;6235478;23;20491;-83
2022/04/05 05:02:17;;;;;;;31.48;13.63;;;;;;;4.77;64.60;94983.13;6234513;22;20283;-83
2022/04/05 05:04:43;;;;;;;25.08;13.35;;;;;;;4.78;64.73;94982.88;6234954;23;20015;-83
2022/04/05 05:07:08;;;;;;;41.28;13.80;;;;;;;4.74;64.32;94963.38;6237573;23;20019;-83
2022/04/05 05:09:34;;;;;;;29.95;13.25;;;;;;;4.70;64.54;94961.47;6235431;23;20008;-83
2022/04/05 05:12:00;;;;;;;31.30;13.48;;;;;;;4.64;64.01;94940.41;6228100;23;20012;-83
2022/04/05 05:14:27;;;;;;;27.98;13.13;;;;;;;4.74;64.67;94984.41;6234564;23;20012;-83
2022/04/05 05:16:53;;;;;;;40.70;13.90;;;;;;;4.50;64.98;94956.75;6236536;22;20014;-83
2022/04/05 05:19:19;;;;;;;50.05;14.68;;;;;;;3.76;65.55;94874.75;6236303;23;20016;-83
2022/04/05 05:21:45;;;;;;;32.00;12.60;;;;;;;4.01;65.56;94924.22;6239469;22;20260;-84
2022/04/05 05:24:10;;;;;;;33.35;14.18;;;;;;;4.39;65.52;94992.56;6240734;22;20058;-83
2022/04/05 05:26:36;;;;;;;29.77;17.23;;;;;;;3.27;66.25;94844.84;6238720;23;20474;-83
2022/04/05 05:29:01;;;;;;;33.65;16.88;;;;;;;3.52;66.23;94866.25;6238132;22;20533;-83
2022/04/05 05:31:27;;;;;;;26.75;15.07;;;;;;;4.29;66.54;94997.63;6237974;23;20015;-84
2022/04/05 05:33:52;;;;;;;36.30;14.25;;;;;;;3.45;66.14;94871.63;6237118;23;20095;-83
2022/04/05 05:36:17;;;;;;;31.48;15.90;;;;;;;4.19;66.04;94987.78;6238394;23;20022;-83
2022/04/05 05:38:43;;;;;;;38.95;14.63;;;;;;;3.75;66.10;94915.94;6238284;23;20054;-83
2022/04/05 05:41:08;;;;;;;36.63;13.95;;;;;;;3.57;65.58;94868.97;6237924;23;20038;-84
2022/04/05 05:43:34;;;;;;;32.22;13.93;;;;;;;4.04;65.21;94921.13;6236615;23;20108;-82
2022/04/05 05:46:03;;;;;;;24.92;14.60;;;;;;;4.15;65.65;94955.16;6238528;22;20027;-83
2022/04/05 05:48:29;;;;;;;31.83;13.55;;;;;;;3.96;65.50;94909.22;6235791;23;20411;-83
2022/04/05 05:50:55;;;;;;;33.72;12.23;;;;;;;4.38;65.15;94946.31;6233875;23;20012;-83
2022/04/05 05:53:21;;;;;;;30.40;13.70;;;;;;;4.23;65.16;94927.72;6235459;23;20018;-83
2022/04/05 05:55:48;;;;;;;31.88;13.20;;;;;;;3.83;65.43;94878.03;6235968;23;20019;-83
2022/04/05 05:58:14;;;;;;;35.00;12.05;;;;;;;4.45;64.76;94935.66;6243890;22;20007;-82
2022/04/05 06:00:39;;;;;;;31.60;11.52;;;;;;;4.84;64.60;94994.25;6242494;23;20039;-83
2022/04/05 06:03:05;;;;;;;35.10;12.13;;;;;;;4.59;64.51;94944.78;6239440;23;20210;-83
2022/04/05 06:05:31;;;;;;;24.48;11.02;;;;;;;4.58;64.80;94951.06;6239061;22;20066;-83
2022/04/05 06:07:57;;;;;;;21.95;11.02;;;;;;;4.86;64.45;94974.59;6237401;23;20011;-83
2022/04/05 06:10:24;;;;;;;25.38;10.82;;;;;;;3.45;64.05;94740.56;6236900;23;20012;-82
2022/04/05 06:12:51;;;;;;;21.98;9.63;;;;;;;4.92;64.44;94943.91;6234874;23;20044;-82
2022/04/05 06:15:19;;;;;;;18.05;9.43;;;;;;;4.34;64.28;94871.72;6232668;23;20019;-82
2022/04/05 06:17:46;;;;;;;25.10;12.30;;;;;;;5.08;64.66;94993.00;6233721;23;20012;-83
2022/04/05 06:20:16;;;;;;;22.85;12.13;;;;;;;4.45;63.90;94868.19;6235308;23;20016;-83
2022/04/05 06:22:47;;;;;;;23.58;13.32;;;;;;;5.19;64.18;94952.66;6236683;22;20539;-82
2022/04/05 06:25:16;;;;;;;30.38;12.55;;;;;;;5.36;64.40;94990.19;6236453;23;20004;-83
2022/04/05 06:27:42;;;;;;;30.35;12.82;;;;;;;4.76;64.35;94893.00;6246795;22;20110;-82
2022/04/05 06:30:09;;;;;;;17.52;11.65;;;;;;;4.86;63.71;94890.50;6242913;23;20011;-83
2022/04/05 06:32:35;;;;;;;24.73;13.30;;;;;;;5.40;64.34;94985.25;6248915;22;20038;-82
2022/04/05 06:35:03;;;;;;;31.65;12.98;;;;;;;5.07;64.43;94959.88;6247137;22;20233;-83
2022/04/05 06:37:28;;;;;;;23.73;11.10;;;;;;;5.19;63.97;94967.66;6244576;23;20067;-83
2022/04/05 06:39:54;;;;;;;32.40;12.73;;;;;;;4.88;63.79;94864.00;6245525;22;20058;-83
2022/04/05 06:42:20;;;;;;;21.95;12.30;;;;;;;5.70;63.12;94954.03;6237875;23;20520;-83
2022/04/05 06:44:45;;;;;;;30.15;13.02;;;;;;;5.28;63.48;94876.78;6234955;23;20048;-83
2022/04/05 06:47:11;;;;;;;29.95;13.88;;;;;;;5.89;63.48;94967.63;6237562;22;20008;-83
2022/04/05 06:49:38;;;;;;;28.80;13.60;;;;;;;5.80;62.85;94967.25;6236181;22;20518;-82
2022/04/05 06:52:04;;;;;;;26.42;13.00;;;;;;;5.32;63.04;94870.78;6233642;23;20016;-82
2022/04/05 06:54:29;;;;;;;30.33;14.68;;;;;;;5.96;62.28;94944.53;6234262;23;20016;-82
2022/04/05 06:56:55;;;;;;;30.58;14.18;;;;;;;5.49;62.06;94854.13;6236571;22;20047;-82
2022/04/05 06:59:20;;;;;;;28.08;13.45;;;;;;;5.38;61.62;94827.72;6234996;22;20012;-83
2022/04/05 07:01:46;;;;;;;32.75;14.48;;;;;;;5.54;61.88;94838.38;6235680;22;20008;-82
2022/04/05 07:04:11;;;;;;;25.42;13.20;;;;;;;6.47;61.67;94966.03;6237066;22;20024;-82
2022/04/05 07:06:37;;;;;;;45.45;15.18;;;;;;;6.45;61.85;94968.91;6234622;22;20008;-83
2022/04/05 07:09:05;;;;;;;29.73;14.13;;;;;;;6.55;61.81;94968.22;6237447;22;20110;-83
2022/04/05 07:11:31;;;;;;;28.75;15.57;;;;;;;6.61;62.19;94971.66;6231652;23;20526;-85
2022/04/05 07:13:57;;;;;;;40.90;15.23;;;;;;;5.61;61.96;94836.31;6232349;23;20023;-84
2022/04/05 07:16:22;;;;;;;24.67;14.07;;;;;;;6.53;61.91;94968.44;6233850;23;20012;-83
2022/04/05 07:18:49;;;;;;;28.30;13.68;;;;;;;5.78;61.87;94856.22;6231735;23;20015;-83
2022/04/05 07:21:15;;;;;;;25.88;14.15;;;;;;;6.11;62.17;94905.19;6232292;23;20004;-84
2022/04/05 07:23:41;;;;;;;31.83;15.57;;;;;;;6.00;61.79;94860.63;6227131;23;20027;-83
2022/04/05 07:26:07;;;;;;;29.88;15.00;;;;;;;6.25;61.91;94902.16;6234711;23;20424;-83
2022/04/05 07:28:32;;;;;;;35.65;15.73;;;;;;;5.91;62.45;94862.13;6233438;23;20012;-83
2022/04/05 07:30:58;;;;;;;28.27;13.88;;;;;;;6.16;61.61;94892.06;6232908;22;20008;-81
2022/04/05 07:33:24;;;;;;;35.28;14.68;;;;;;;6.49;60.93;94930.47;6232565;23;20003;-84
2022/04/05 07:35:50;;;;;;;28.40;13.70;;;;;;;6.71;61.03;94946.19;6232457;23;20031;-83
2022/04/05 07:38:17;;;;;;;24.30;11.95;;;;;;;5.60;61.07;94761.09;6230047;23;20072;-84
2022/04/05 07:40:49;;;;;;;23.40;12.40;;;;;;;6.05;60.49;94845.66;6235087;23;20033;-83
2022/04/05 07:43:18;;;;;;;;;;;;;;;6.86;61.05;94956.81;6234960;23;20012;-84
2022/04/05 07:45:50;;;;;;;28.85;13.27;;;;;;;6.42;60.45;94889.59;6234988;23;19920;-83
2022/04/05 07:48:20;;;;;;;29.50;14.30;;;;;;;6.70;61.48;94959.59;6233216;23;20223;-83
2022/04/05 07:50:47;;;;;;;31.80;15.02;;;;;;;6.16;61.35;94855.22;6230249;23;20426;-83
2022/04/05 07:53:13;;;;;;;26.15;13.20;;;;;;;6.49;60.52;94869.09;6228325;22;20439;-82
2022/04/05 07:55:38;;;;;;;26.75;14.80;;;;;;;6.94;60.79;94945.75;6233252;23;20008;-82
2022/04/05 07:58:04;;;;;;;29.13;14.15;;;;;;;7.05;60.39;94946.63;6229137;23;20442;-83
2022/04/05 08:00:30;;;;;;;29.27;13.95;;;;;;;7.16;59.74;94961.44;6229270;23;20039;-83
2022/04/05 08:02:56;;;;;;;27.40;13.57;;;;;;;6.28;59.70;94817.34;6228545;23;20145;-82
2022/04/05 08:05:23;;;;;;;23.67;13.15;;;;;;;6.31;59.98;94801.03;6230101;23;20069;-83
2022/04/05 08:07:50;;;;;;;29.55;13.65;;;;;;;6.64;60.29;94834.91;6231097;22;20012;-83
2022/04/05 08:10:16;;;;;;;23.00;13.00;;;;;;;7.34;60.27;94950.44;6228173;23;20118;-83
2022/04/05 08:12:47;;;;;;;29.85;13.90;;;;;;;7.20;59.13;94935.34;6231529;22;20029;-83
2022/04/05 08:15:16;;;;;;;37.88;13.93;;;;;;;6.71;59.31;94830.22;6229837;23;20004;-83
2022/04/05 08:17:42;;;;;;;31.50;14.30;;;;;;;7.02;59.56;94875.94;6229214;23;20336;-84
2022/04/05 08:20:08;;;;;;;26.88;13.88;;;;;;;7.22;58.87;94888.41;6232042;22;20070;-84
2022/04/05 08:22:34;;;;;;;24.02;13.27;;;;;;;6.98;57.95;94857.22;6231371;22;20015;-84
2022/04/05 08:25:00;;;;;;;25.42;12.15;;;;;;;7.65;57.80;94940.75;6230951;23;20387;-84
2022/04/05 08:27:25;;;;;;;14.75;8.85;;;;;;;7.54;55.71;94923.34;6233924;22;20012;-83
2022/04/05 08:29:51;;;;;;;20.08;9.45;;;;;;;7.20;56.63;94875.47;6230561;23;20012;-83
2022/04/05 08:32:16;;;;;;;20.25;9.80;;;;;;;6.41;56.18;94751.81;6232407;22;20384;-84
2022/04/05 08:34:42;;;;;;;18.63;10.70;;;;;;;7.82;55.99;94922.06;6228407;23;20375;-83
2022/04/05 08:37:08;;;;;;;24.13;11.25;;;;;;;6.99;55.76;94792.09;6228166;22;20012;-84
2022/04/05 08:39:38;;;;;;;22.45;11.02;;;;;;;7.64;56.18;94878.47;6228019;22;20007;-83
2022/04/05 08:42:04;;;;;;;22.23;11.57;;;;;;;8.07;58.06;94911.53;6231201;22;20427;-83
2022/04/05 08:44:30;;;;;;;26.02;11.98;;;;;;;7.82;57.68;94856.06;6229203;23;20074;-84
2022/04/05 08:47:02;;;;;;;16.27;10.90;;;;;;;7.46;55.88;94831.50;6228048;23;20015;-83
2022/04/05 08:49:29;;;;;;;30.70;12.30;;;;;;;7.09;56.17;94757.84;6231433;22;20483;-83
2022/04/05 08:51:54;;;;;;;18.65;10.02;;;;;;;7.89;55.66;94876.91;6232265;23;20012;-83
2022/04/05 08:54:20;;;;;;;21.30;10.38;;;;;;;7.99;54.04;94880.38;6237578;23;20037;-83
2022/04/05 08:56:47;;;;;;;24.08;11.40;;;;;;;8.34;54.95;94898.06;6237363;22;20063;-83
2022/04/05 08:59:13;;;;;;;24.50;11.70;;;;;;;8.47;55.21;94896.72;6235422;22;20008;-83
2022/04/05 09:01:40;;;;;;;29.08;12.43;;;;;;;8.53;55.72;94890.38;6236445;22;20122;-83
2022/04/05 09:04:06;;;;;;;24.95;11.98;;;;;;;8.42;55.37;94886.97;6233487;22;20534;-82
2022/04/05 09:06:33;;;;;;;25.90;11.63;;;;;;;8.57;55.50;94888.78;6229692;23;20047;-82
2022/04/05 09:09:13;;;;;;;20.70;9.80;;;;;;;8.47;51.84;94889.59;6234242;22;20008;-82
2022/04/05 09:11:46;;;;;;;19.23;10.32;;;;;;;7.96;51.69;94800.88;6230908;23;20252;-83
2022/04/05 09:14:12;;;;;;;19.25;9.27;;;;;;;8.61;50.96;94884.56;6234471;22;20016;-83
2022/04/05 09:16:38;;;;;;;14.18;9.15;;;;;;;7.86;51.07;94761.28;6234204;22;20004;-83
2022/04/05 09:19:14;;;;;;;21.10;9.38;;;;;;;6.42;50.40;94511.09;6234297;22;20015;-82
2022/04/05 09:21:57;;;;;;;15.68;8.10;;;;;;;8.27;50.50;94764.63;6232116;23;20007;-83
2022/04/05 09:24:34;;;;;;;13.18;7.93;;;;;;;8.94;48.22;94861.97;6232119;23;20523;-83
2022/04/05 09:27:00;;;;;;;15.20;6.35;;;;;;;9.13;45.76;94876.19;6232111;22;20103;-83
2022/04/05 09:29:43;;;;;;;11.98;6.43;;;;;;;9.09;43.66;94871.69;6230825;23;20121;-82
2022/04/05 09:32:09;;;;;;;13.77;6.00;;;;;;;8.59;44.54;94780.16;6231525;22;20447;-82
2022/04/05 09:34:54;;;;;;;14.93;6.30;;;;;;;8.44;45.57;94776.50;6233629;22;20008;-83
2022/04/05 09:37:26;;;;;;;10.38;6.55;;;;;;;8.77;46.28;94800.72;6233577;23;20077;-82
2022/04/05 09:39:52;;;;;;;15.85;6.75;;;;;;;8.66;45.93;94804.44;6229138;22;20055;-82
2022/04/05 09:42:17;;;;;;;12.88;5.70;;;;;;;8.73;44.53;94786.44;6231976;23;20096;-84
2022/04/05 09:44:44;;;;;;;10.48;5.38;;;;;;;9.14;44.13;94819.56;6232713;22;20020;-83
2022/04/05 09:47:14;;;;;;;9.85;5.40;;;;;;;9.05;45.70;94796.59;6227976;23;20020;-84
2022/04/05 09:49:41;;;;;;;14.93;5.32;;;;;;;9.29;44.38;94816.84;6232985;22;20200;-83
2022/04/05 09:52:27;;;;;;;8.50;4.40;;;;;;;9.51;41.16;94844.75;6232190;22;20050;-84
2022/04/05 09:54:53;;;;;;;7.97;5.07;;;;;;;8.93;41.79;94732.66;6227111;23;20026;-82
2022/04/05 09:57:30;;;;;;;10.60;5.53;;;;;;;9.24;41.33;94779.03;6227412;23;20639;-82
2022/04/05 10:00:12;;;;;;;6.88;4.20;;;;;;;9.78;40.94;94836.38;6229460;23;20332;-83
2022/04/05 10:03:09;;;;;;;7.50;4.50;;;;;;;10.67;38.86;94827.13;6228683;23;20232;-83
2022/04/05 10:05:36;;;;;;;15.15;5.35;;;;;;;11.51;38.40;94761.81;6228784;23;20877;-83
2022/04/05 10:08:02;;;;;;;12.50;4.65;;;;;;;13.05;36.24;94810.91;6230979;23;20493;-83
2022/04/05 10:10:28;;;;;;;6.13;3.63;;;;;;;14.30;33.39;94821.72;6230297;23;20396;-83
2022/04/05 10:12:54;;;;;;;8.57;3.80;;;;;;;14.62;30.08;94729.94;6233657;22;20600;-83
2022/04/05 10:15:21;;;;;;;8.27;3.83;;;;;;;16.06;29.26;94816.25;6234503;22;20450;-83
2022/04/05 10:17:48;;;;;;;12.48;4.43;;;;;;;16.87;30.08;94819.69;6233012;23;20023;-83
2022/04/05 10:20:16;;;;;;;5.88;4.20;;;;;;;17.46;28.59;94771.47;6232746;22;20035;-83
2022/04/05 10:22:43;;;;;;;7.22;4.20;;;;;;;18.34;27.96;94781.94;6231482;23;20008;-83
2022/04/05 10:25:09;;;;;;;9.55;3.90;;;;;;;19.02;26.68;94794.94;6234092;22;20019;-83
2022/04/05 10:27:34;;;;;;;7.25;3.75;;;;;;;19.29;26.16;94794.28;6231364;23;20376;-84
2022/04/05 10:30:08;;;;;;;7.45;4.80;;;;;;;19.71;26.91;94789.41;6232146;23;20027;-83
2022/04/05 10:32:43;;;;;;;9.18;4.45;;;;;;;19.35;24.81;94669.25;6228506;23;20027;-83
2022/04/05 10:35:10;;;;;;;10.20;5.30;;;;;;;18.53;24.52;94692.81;6230896;22;20012;-83
2022/04/05 10:37:40;;;;;;;16.05;5.32;;;;;;;19.34;25.26;94793.25;6230582;23;20012;-83
2022/04/05 10:40:07;;;;;;;14.73;4.47;;;;;;;19.75;25.17;94781.47;6229328;23;20023;-83
2022/04/05 10:42:35;;;;;;;8.05;5.03;;;;;;;19.07;24.29;94623.50;6232044;23;20015;-83
2022/04/05 10:45:10;;;;;;;12.48;5.28;;;;;;;19.42;24.92;94771.63;6231267;23;20032;-83
2022/04/05 10:47:55;;;;;;;11.27;5.22;;;;;;;19.28;24.69;94772.00;6230878;23;20022;-83
2022/04/05 10:50:20;;;;;;;9.50;4.25;;;;;;;19.90;24.52;94760.00;6235775;23;20463;-83
2022/04/05 10:52:48;;;;;;;14.73;5.60;;;;;;;19.31;24.84;94703.28;6231340;23;20086;-83
2022/04/05 10:55:20;;;;;;;13.23;5.13;;;;;;;19.47;25.25;94755.28;6231831;23;20506;-84
2022/04/05 10:57:46;;;;;;;12.32;4.57;;;;;;;18.37;25.61;94651.66;6232086;23;20457;-83
2022/04/05 11:00:28;;;;;;;13.30;5.63;;;;;;;19.14;24.88;94755.44;6233661;22;20517;-84
2022/04/05 11:02:53;;;;;;;8.10;5.30;;;;;;;19.02;25.53;94743.88;6235811;22;20004;-83
2022/04/05 11:05:19;;;;;;;11.65;4.75;;;;;;;19.39;25.58;94747.31;6233415;23;20095;-84
2022/04/05 11:07:53;;;;;;;11.65;4.85;;;;;;;19.34;24.76;94742.97;6235351;22;20016;-84
2022/04/05 11:10:44;;;;;;;13.50;6.03;;;;;;;18.88;25.47;94723.53;6235417;22;20052;-84
2022/04/05 11:13:15;;;;;;;14.73;5.05;;;;;;;18.29;26.38;94733.84;6231965;23;20055;-83
2022/04/05 11:15:42;;;;;;;13.38;5.55;;;;;;;17.69;26.34;94621.78;6231462;22;20027;-84
2022/04/05 11:18:09;;;;;;;14.00;5.32;;;;;;;18.05;26.77;94728.41;6232288;23;20012;-83
2022/04/05 11:20:39;;;;;;;14.10;6.32;;;;;;;17.30;27.00;94623.06;6234011;22;20122;-84
2022/04/05 11:23:07;;;;;;;9.68;5.55;;;;;;;18.37;26.58;94716.06;6233944;23;20016;-84
2022/04/05 11:25:33;;;;;;;13.23;5.45;;;;;;;18.45;25.71;94626.59;6234202;23;20059;-83
2022/04/05 11:28:17;;;;;;;14.57;5.25;;;;;;;18.51;25.96;94649.41;6236107;22;20036;-82
2022/04/05 11:30:47;;;;;;;10.00;5.10;;;;;;;19.34;26.21;94704.53;6232828;23;20008;-85